createdAt,value
2019-01-09T00:00:26.460Z,71.42
2019-01-09T00:01:34.598Z,69.53
2019-01-09T00:02:42.679Z,68.59
2019-01-09T00:03:50.784Z,67.93
2019-01-09T00:07:40.290Z,74.17
2019-01-09T00:08:48.455Z,80.79
2019-01-09T00:10:02.933Z,78.61
2019-01-09T00:30:05.055Z,82.97
2019-01-09T00:31:13.182Z,84.58
2019-01-09T00:32:21.269Z,80.79
2019-01-09T00:33:29.303Z,85.33
2019-01-09T00:46:03.441Z,85.80
2019-01-09T00:47:11.465Z,84.29
2019-01-09T00:48:19.447Z,84.67
2019-01-09T00:49:27.642Z,86.56
2019-01-09T00:50:35.662Z,84.67
2019-01-09T00:51:43.646Z,79.75
2019-01-09T00:52:51.765Z,78.42
2019-01-09T00:53:59.850Z,79.09
2019-01-09T00:55:07.913Z,74.64
2019-01-09T00:56:15.952Z,74.83
2019-01-09T00:57:23.927Z,77.67
2019-01-09T00:58:32.053Z,80.04
2019-01-09T00:59:40.116Z,79.37
2019-01-09T01:00:48.211Z,75.21
2019-01-09T01:01:56.210Z,74.17
2019-01-09T01:03:04.217Z,73.22
2019-01-09T01:04:12.375Z,72.75
2019-01-09T01:05:20.327Z,73.88
2019-01-09T01:06:28.432Z,74.26
2019-01-09T01:07:36.486Z,71.61
2019-01-09T01:08:44.450Z,73.60
2019-01-09T01:09:52.639Z,74.26
2019-01-09T01:11:00.612Z,70.86
2019-01-09T01:12:08.609Z,76.72
2019-01-09T01:13:16.730Z,73.13
2019-01-09T01:14:24.813Z,73.60
2019-01-09T01:15:32.902Z,76.34
2019-01-09T01:16:40.864Z,73.79
2019-01-09T01:17:48.990Z,73.22
2019-01-09T01:18:57.013Z,73.13
2019-01-09T01:20:05.788Z,73.41
2019-01-09T01:21:16.252Z,74.64
2019-01-09T01:22:24.515Z,73.13
2019-01-09T01:24:48.732Z,76.06
2019-01-09T01:25:56.742Z,75.78
2019-01-09T01:27:04.872Z,76.91
2019-01-09T01:28:12.844Z,80.60
2019-01-09T01:29:20.934Z,81.83
2019-01-09T01:30:29.069Z,82.12
2019-01-09T01:31:37.083Z,81.93
2019-01-09T01:32:45.154Z,83.15
2019-01-09T01:33:53.076Z,83.15
2019-01-09T01:35:01.187Z,83.25
2019-01-09T01:36:09.223Z,83.15
2019-01-09T01:37:17.357Z,83.44
2019-01-09T01:38:25.366Z,84.39
2019-01-09T01:39:33.509Z,82.02
2019-01-09T01:40:41.485Z,87.04
2019-01-09T01:41:49.452Z,86.47
2019-01-09T01:42:57.613Z,86.75
2019-01-09T01:44:05.627Z,88.36
2019-01-09T01:45:13.783Z,89.59
2019-01-09T01:46:21.724Z,91.48
2019-01-09T01:47:29.739Z,89.50
2019-01-09T01:48:37.901Z,91.39
2019-01-09T01:49:45.855Z,92.24
2019-01-09T01:50:54.000Z,90.96
2019-01-09T01:52:02.032Z,88.45
2019-01-09T01:53:10.018Z,87.41
2019-01-09T01:54:18.213Z,89.12
2019-01-09T01:55:26.176Z,90.25
2019-01-09T01:56:34.187Z,91.48
2019-01-09T01:57:42.342Z,91.20
2019-01-09T01:58:50.297Z,91.96
2019-01-09T01:59:58.444Z,87.51
2019-01-09T02:01:06.470Z,89.78
2019-01-09T02:02:14.580Z,89.31
2019-01-09T02:03:22.582Z,96.78
2019-01-09T02:04:30.663Z,94.60
2019-01-09T02:05:38.751Z,93.85
2019-01-09T02:06:46.812Z,95.93
2019-01-09T02:07:54.820Z,94.42
2019-01-09T02:09:02.908Z,92.14
2019-01-09T02:10:10.876Z,94.23
2019-01-09T02:11:18.987Z,95.83
2019-01-09T02:12:27.049Z,95.93
2019-01-09T02:13:35.112Z,95.74
2019-01-09T02:14:43.106Z,93.28
2019-01-09T02:15:51.234Z,94.60
2019-01-09T02:16:59.232Z,92.90
2019-01-09T02:18:07.333Z,93.28
2019-01-09T02:19:15.384Z,92.61
2019-01-09T02:20:23.382Z,95.45
2019-01-09T02:21:31.467Z,94.04
2019-01-09T02:22:39.602Z,93.28
2019-01-09T02:23:47.622Z,95.17
2019-01-09T02:24:55.627Z,96.31
2019-01-09T02:26:03.704Z,98.86
2019-01-09T02:27:11.748Z,99.99
2019-01-09T02:28:19.811Z,99.99
2019-01-09T02:29:27.818Z,98.01
2019-01-09T02:30:35.933Z,96.31
2019-01-09T02:31:44.022Z,99.99
2019-01-09T02:32:52.058Z,98.86
2019-01-09T02:34:00.024Z,97.63
2019-01-09T02:35:08.158Z,97.53
2019-01-09T02:36:16.200Z,96.02
2019-01-09T02:37:24.210Z,96.31
2019-01-09T02:38:32.345Z,95.74
2019-01-09T02:39:40.304Z,93.85
2019-01-09T02:40:48.468Z,93.28
2019-01-09T02:41:56.507Z,93.56
2019-01-09T02:43:04.520Z,91.86
2019-01-09T02:44:12.512Z,95.93
2019-01-09T02:45:20.697Z,97.63
2019-01-09T02:46:28.603Z,97.63
2019-01-09T02:47:36.802Z,95.45
2019-01-09T02:48:44.847Z,99.33
2019-01-09T02:49:52.899Z,95.83
2019-01-09T02:51:00.877Z,92.61
2019-01-09T02:52:08.984Z,91.20
2019-01-09T02:53:16.968Z,90.53
2019-01-09T02:54:25.111Z,90.16
2019-01-09T02:55:33.183Z,87.13
2019-01-09T02:56:41.101Z,88.36
2019-01-09T02:57:56.433Z,85.80
2019-01-09T02:58:57.378Z,85.99
2019-01-09T03:00:05.408Z,83.15
2019-01-09T03:01:13.444Z,84.39
2019-01-09T03:02:21.491Z,82.87
2019-01-09T03:03:29.528Z,83.34
2019-01-09T03:04:37.656Z,82.12
2019-01-09T03:05:45.620Z,82.59
2019-01-09T03:06:53.629Z,84.39
2019-01-09T03:08:01.760Z,83.15
2019-01-09T03:09:09.784Z,85.80
2019-01-09T03:10:17.804Z,83.15
2019-01-09T03:11:25.987Z,84.01
2019-01-09T03:12:33.983Z,83.53
2019-01-09T03:13:41.997Z,82.78
2019-01-09T03:14:50.102Z,82.87
2019-01-09T03:15:58.128Z,85.52
2019-01-09T03:17:06.264Z,86.85
2019-01-09T03:18:14.247Z,86.56
2019-01-09T03:19:22.303Z,84.67
2019-01-09T03:20:30.378Z,83.63
2019-01-09T03:21:38.467Z,82.02
2019-01-09T03:22:46.509Z,84.48
2019-01-09T03:23:54.565Z,83.34
2019-01-09T03:25:02.563Z,80.51
2019-01-09T03:26:10.732Z,82.50
2019-01-09T03:27:18.623Z,82.78
2019-01-09T03:28:26.749Z,79.94
2019-01-09T03:29:34.752Z,78.80
2019-01-09T03:30:42.787Z,78.80
2019-01-09T03:31:50.832Z,77.58
2019-01-09T03:32:59.012Z,78.33
2019-01-09T03:34:07.011Z,79.18
2019-01-09T03:35:15.129Z,76.53
2019-01-09T03:36:32.301Z,76.34
2019-01-09T03:37:31.229Z,79.47
2019-01-09T03:38:39.322Z,78.05
2019-01-09T03:39:47.361Z,80.41
2019-01-09T03:40:55.339Z,79.18
2019-01-09T03:42:03.427Z,79.66
2019-01-09T03:43:11.510Z,77.95
2019-01-09T03:44:19.589Z,79.66
2019-01-09T03:45:27.555Z,80.13
2019-01-09T03:46:35.600Z,79.18
2019-01-09T03:47:43.735Z,79.75
2019-01-09T03:48:51.756Z,78.80
2019-01-09T03:49:59.842Z,80.41
2019-01-09T03:51:07.822Z,81.17
2019-01-09T03:52:15.992Z,77.76
2019-01-09T03:53:23.952Z,80.41
2019-01-09T03:54:31.967Z,78.80
2019-01-09T03:55:40.115Z,79.28
2019-01-09T03:56:48.158Z,80.60
2019-01-09T03:57:56.201Z,79.66
2019-01-09T03:59:04.281Z,78.14
2019-01-09T04:00:12.291Z,78.90
2019-01-09T04:01:20.391Z,79.28
2019-01-09T04:02:28.397Z,77.20
2019-01-09T04:03:36.579Z,76.15
2019-01-09T04:04:44.506Z,75.87
2019-01-09T04:05:52.507Z,75.12
2019-01-09T04:07:00.659Z,73.32
2019-01-09T04:08:08.734Z,72.47
2019-01-09T04:09:16.700Z,72.85
2019-01-09T04:10:24.821Z,71.61
2019-01-09T04:11:32.782Z,70.01
2019-01-09T04:12:40.820Z,69.82
2019-01-09T04:13:49.009Z,71.33
2019-01-09T04:14:57.081Z,70.76
2019-01-09T04:16:05.096Z,71.04
2019-01-09T04:17:13.320Z,71.99
2019-01-09T04:18:21.124Z,71.42
2019-01-09T04:19:29.264Z,69.72
2019-01-09T04:20:37.295Z,69.82
2019-01-09T04:21:45.370Z,70.01
2019-01-09T04:22:53.360Z,69.72
2019-01-09T04:24:01.399Z,69.72
2019-01-09T04:25:09.558Z,69.44
2019-01-09T04:26:17.511Z,69.15
2019-01-09T04:27:25.579Z,68.49
2019-01-09T04:28:33.721Z,69.82
2019-01-09T04:29:41.938Z,68.40
2019-01-09T04:30:49.789Z,68.12
2019-01-09T04:31:57.942Z,69.06
2019-01-09T04:33:05.915Z,67.36
2019-01-09T04:34:14.011Z,69.25
2019-01-09T04:35:22.023Z,69.06
2019-01-09T04:36:30.138Z,69.82
2019-01-09T04:37:38.072Z,69.06
2019-01-09T04:38:46.128Z,68.12
2019-01-09T04:39:54.305Z,69.72
2019-01-09T04:41:02.284Z,68.59
2019-01-09T04:42:10.381Z,70.39
2019-01-09T04:43:18.452Z,70.01
2019-01-09T04:44:26.408Z,70.01
2019-01-09T04:45:34.509Z,70.67
2019-01-09T04:46:42.660Z,70.57
2019-01-09T04:47:50.653Z,70.01
2019-01-09T04:48:58.668Z,71.52
2019-01-09T04:50:06.774Z,68.12
2019-01-09T04:51:14.818Z,69.82
2019-01-09T04:52:22.892Z,69.34
2019-01-09T04:53:30.974Z,68.40
2019-01-09T04:54:39.019Z,68.30
2019-01-09T04:55:46.946Z,69.44
2019-01-09T04:56:55.112Z,73.03
2019-01-09T04:58:03.136Z,70.67
2019-01-09T04:59:11.124Z,69.82
2019-01-09T05:00:19.249Z,68.12
2019-01-09T05:01:27.340Z,68.30
2019-01-09T05:02:35.283Z,68.21
2019-01-09T05:03:43.365Z,69.15
2019-01-09T05:04:51.377Z,69.34
2019-01-09T05:05:59.464Z,67.26
2019-01-09T05:07:07.524Z,65.84
2019-01-09T05:08:15.569Z,67.36
2019-01-09T05:09:23.718Z,67.93
2019-01-09T05:10:31.677Z,67.83
2019-01-09T05:11:39.728Z,67.64
2019-01-09T05:12:47.795Z,66.69
2019-01-09T05:13:55.852Z,65.47
2019-01-09T05:15:03.887Z,65.84
2019-01-09T05:16:11.973Z,65.37
2019-01-09T05:17:20.015Z,66.03
2019-01-09T05:18:28.085Z,65.94
2019-01-09T05:19:36.135Z,67.93
2019-01-09T05:20:44.203Z,67.07
2019-01-09T05:21:52.244Z,68.68
2019-01-09T05:23:00.302Z,66.50
2019-01-09T05:24:08.342Z,66.79
2019-01-09T05:25:16.408Z,68.02
2019-01-09T05:26:24.469Z,67.07
2019-01-09T05:27:32.526Z,67.74
2019-01-09T05:28:40.570Z,65.66
2019-01-09T05:29:48.627Z,64.90
2019-01-09T05:30:56.686Z,66.03
2019-01-09T05:32:04.745Z,64.99
2019-01-09T05:33:12.785Z,64.99
2019-01-09T05:34:20.821Z,64.14
2019-01-09T05:35:28.905Z,64.52
2019-01-09T05:36:36.975Z,64.80
2019-01-09T05:37:45.019Z,64.80
2019-01-09T05:38:53.772Z,63.85
2019-01-09T05:40:01.252Z,62.82
2019-01-09T05:41:09.185Z,63.01
2019-01-09T05:42:17.237Z,61.58
2019-01-09T05:43:25.409Z,60.70
2019-01-09T05:44:34.728Z,63.67
2019-01-09T05:45:41.387Z,63.67
2019-01-09T05:46:49.469Z,64.99
2019-01-09T05:47:59.931Z,64.23
2019-01-09T05:49:05.579Z,65.75
2019-01-09T05:50:13.803Z,63.82
2019-01-09T05:51:21.669Z,62.72
2019-01-09T05:52:29.734Z,63.57
2019-01-09T05:53:37.798Z,63.57
2019-01-09T05:54:45.851Z,64.20
2019-01-09T05:55:53.915Z,64.52
2019-01-09T05:57:01.964Z,64.99
2019-01-09T05:58:10.020Z,64.61
2019-01-09T05:59:18.069Z,64.99
2019-01-09T06:00:26.128Z,63.92
2019-01-09T06:01:34.197Z,64.67
2019-01-09T06:02:42.332Z,64.20
2019-01-09T06:03:50.284Z,66.19
2019-01-09T06:04:58.530Z,65.09
2019-01-09T06:06:06.527Z,60.80
2019-01-09T06:07:18.441Z,60.61
2019-01-09T06:08:23.483Z,60.83
2019-01-09T06:09:30.844Z,60.26
2019-01-09T06:10:38.774Z,61.02
2019-01-09T06:11:46.778Z,64.33
2019-01-09T06:12:54.746Z,62.69
2019-01-09T06:14:02.880Z,67.89
2019-01-09T06:15:11.006Z,67.98
2019-01-09T06:16:19.287Z,67.51
2019-01-09T06:17:27.174Z,66.85
2019-01-09T06:18:35.200Z,68.46
2019-01-09T06:19:43.061Z,66.75
2019-01-09T06:20:51.196Z,65.15
2019-01-09T06:21:59.277Z,65.72
2019-01-09T06:23:07.230Z,66.75
2019-01-09T06:24:15.399Z,66.85
2019-01-09T06:25:23.358Z,65.43
2019-01-09T06:26:31.514Z,66.28
2019-01-09T06:27:39.565Z,64.96
2019-01-09T06:28:47.606Z,65.72
2019-01-09T06:29:55.606Z,65.62
2019-01-09T06:31:03.684Z,66.38
2019-01-09T06:32:11.836Z,67.22
2019-01-09T06:33:19.782Z,65.72
2019-01-09T06:34:27.791Z,64.20
2019-01-09T06:35:36.016Z,65.24
2019-01-09T06:36:43.968Z,64.39
2019-01-09T06:37:52.060Z,64.11
2019-01-09T06:39:00.066Z,64.67
2019-01-09T06:40:08.160Z,64.77
2019-01-09T06:41:16.290Z,65.62
2019-01-09T06:42:24.275Z,66.66
2019-01-09T06:43:32.354Z,66.75
2019-01-09T06:44:40.341Z,67.98
2019-01-09T06:45:48.427Z,68.27
2019-01-09T06:46:56.392Z,67.51
2019-01-09T06:48:04.562Z,68.84
2019-01-09T06:49:12.609Z,69.02
2019-01-09T06:50:20.754Z,70.73
2019-01-09T06:51:28.702Z,69.97
2019-01-09T06:52:36.744Z,70.16
2019-01-09T06:53:44.872Z,70.73
2019-01-09T06:54:52.867Z,71.20
2019-01-09T06:56:00.852Z,72.05
2019-01-09T06:57:08.999Z,74.32
2019-01-09T06:58:17.023Z,71.95
2019-01-09T06:59:25.185Z,70.73
2019-01-09T07:00:33.062Z,71.95
2019-01-09T07:01:41.229Z,72.71
2019-01-09T07:02:49.306Z,72.43
2019-01-09T07:03:57.313Z,71.67
2019-01-09T07:05:05.336Z,71.95
2019-01-09T07:06:13.430Z,72.05
2019-01-09T07:07:21.544Z,72.24
2019-01-09T07:08:29.606Z,72.80
2019-01-09T07:09:37.622Z,75.74
2019-01-09T07:10:45.611Z,76.68
2019-01-09T07:11:53.722Z,75.45
2019-01-09T07:13:01.722Z,75.26
2019-01-09T07:14:09.826Z,73.66
2019-01-09T07:15:17.793Z,73.66
2019-01-09T07:16:25.957Z,73.75
2019-01-09T07:17:33.906Z,75.83
2019-01-09T07:18:42.041Z,76.40
2019-01-09T07:19:50.012Z,75.36
2019-01-09T07:20:58.172Z,72.90
2019-01-09T07:22:06.201Z,72.24
2019-01-09T07:23:14.240Z,72.33
2019-01-09T07:24:22.280Z,72.90
2019-01-09T07:25:30.406Z,74.13
2019-01-09T07:26:38.430Z,74.69
2019-01-09T07:27:46.389Z,73.56
2019-01-09T07:28:54.545Z,72.90
2019-01-09T07:30:02.517Z,74.41
2019-01-09T07:31:10.665Z,74.88
2019-01-09T07:32:18.615Z,73.18
2019-01-09T07:33:26.779Z,73.66
2019-01-09T07:34:34.823Z,74.88
2019-01-09T07:35:42.877Z,72.90
2019-01-09T07:36:50.953Z,74.79
2019-01-09T07:37:58.960Z,72.24
2019-01-09T07:39:07.052Z,71.58
2019-01-09T07:40:15.164Z,69.87
2019-01-09T07:41:23.055Z,67.60
2019-01-09T07:42:31.275Z,67.70
2019-01-09T07:43:39.176Z,66.09
2019-01-09T07:44:47.317Z,65.34
2019-01-09T07:45:55.307Z,65.62
2019-01-09T07:47:03.337Z,66.00
2019-01-09T07:48:11.457Z,67.41
2019-01-09T07:49:19.582Z,65.43
2019-01-09T07:50:27.606Z,64.77
2019-01-09T07:51:35.638Z,63.54
2019-01-09T07:52:43.701Z,63.64
2019-01-09T07:53:51.655Z,63.54
2019-01-09T07:54:59.845Z,64.48
2019-01-09T07:56:07.766Z,64.48
2019-01-09T07:57:15.876Z,63.16
2019-01-09T07:58:23.915Z,61.65
2019-01-09T07:59:32.041Z,61.93
2019-01-09T08:00:40.012Z,63.07
2019-01-09T08:01:48.110Z,63.16
2019-01-09T08:02:56.189Z,68.46
2019-01-09T08:04:04.306Z,65.53
2019-01-09T08:05:12.312Z,68.27
2019-01-09T08:06:20.402Z,65.91
2019-01-09T08:07:28.328Z,68.65
2019-01-09T08:08:36.443Z,65.72
2019-01-09T08:09:44.552Z,65.81
2019-01-09T08:10:52.596Z,64.11
2019-01-09T08:12:00.628Z,69.02
2019-01-09T08:13:08.666Z,66.28
2019-01-09T08:14:16.705Z,65.62
2019-01-09T08:15:24.812Z,66.38
2019-01-09T08:16:32.836Z,68.74
2019-01-09T08:17:41.343Z,68.36
2019-01-09T08:18:48.990Z,71.48
2019-01-09T08:19:56.977Z,69.87
2019-01-09T08:21:05.593Z,71.48
2019-01-09T08:22:13.181Z,72.99
2019-01-09T08:23:21.150Z,76.12
2019-01-09T08:24:29.262Z,71.01
2019-01-09T08:25:37.223Z,69.21
2019-01-09T08:26:45.371Z,74.79
2019-01-09T08:27:53.463Z,75.64
2019-01-09T08:29:01.436Z,72.43
2019-01-09T08:30:09.493Z,72.33
2019-01-09T08:31:17.568Z,71.48
2019-01-09T08:32:25.675Z,71.01
2019-01-09T08:33:33.602Z,73.94
2019-01-09T08:34:41.666Z,75.26
2019-01-09T08:35:49.762Z,73.37
2019-01-09T08:36:57.808Z,75.83
2019-01-09T08:38:05.950Z,73.18
2019-01-09T08:39:14.062Z,74.04
2019-01-09T08:40:21.935Z,73.37
2019-01-09T08:41:30.085Z,74.04
2019-01-09T08:42:38.148Z,73.09
2019-01-09T08:43:46.116Z,75.45
2019-01-09T08:44:54.199Z,75.26
2019-01-09T08:46:02.347Z,75.74
2019-01-09T08:47:10.371Z,76.78
2019-01-09T08:48:18.397Z,75.26
2019-01-09T08:49:26.510Z,77.15
2019-01-09T08:50:34.512Z,79.99
2019-01-09T08:51:42.491Z,78.58
2019-01-09T08:52:50.621Z,77.34
2019-01-09T08:53:58.614Z,76.12
2019-01-09T08:55:06.774Z,83.59
2019-01-09T08:56:14.703Z,84.34
2019-01-09T08:57:22.829Z,85.66
2019-01-09T08:58:30.916Z,81.98
2019-01-09T08:59:38.881Z,87.41
2019-01-09T09:00:46.997Z,82.97
2019-01-09T09:01:55.075Z,81.07
2019-01-09T09:03:03.145Z,78.05
2019-01-09T09:04:11.111Z,85.42
2019-01-09T09:05:19.177Z,85.42
2019-01-09T09:06:27.337Z,82.68
2019-01-09T09:07:35.393Z,84.95
2019-01-09T09:08:43.463Z,84.77
2019-01-09T09:09:51.510Z,81.26
2019-01-09T09:10:59.532Z,82.97
2019-01-09T09:12:07.567Z,79.28
2019-01-09T09:13:15.692Z,83.53
2019-01-09T09:14:23.656Z,83.63
2019-01-09T09:15:31.800Z,83.06
2019-01-09T09:16:39.882Z,84.48
2019-01-09T09:17:47.791Z,85.33
2019-01-09T09:18:55.834Z,82.87
2019-01-09T09:20:03.911Z,83.25
2019-01-09T09:21:12.069Z,89.59
2019-01-09T09:22:20.078Z,93.28
2019-01-09T09:23:28.151Z,89.78
2019-01-09T09:24:36.219Z,88.36
2019-01-09T09:25:44.264Z,85.80
2019-01-09T09:26:52.325Z,88.74
2019-01-09T09:28:00.337Z,83.44
2019-01-09T09:29:08.412Z,83.15
2019-01-09T09:30:16.517Z,85.14
2019-01-09T09:31:24.531Z,84.67
2019-01-09T09:32:32.669Z,91.77
2019-01-09T09:33:40.658Z,89.31
2019-01-09T09:34:48.742Z,93.94
2019-01-09T09:35:56.807Z,89.50
2019-01-09T09:37:04.906Z,90.06
2019-01-09T09:38:20.366Z,86.37
2019-01-09T09:39:20.931Z,88.07
2019-01-09T09:40:29.008Z,88.36
2019-01-09T09:41:36.984Z,88.93
2019-01-09T09:42:45.079Z,91.01
2019-01-09T09:43:53.144Z,92.90
2019-01-09T09:45:01.231Z,91.39
2019-01-09T09:46:09.374Z,96.78
2019-01-09T09:47:17.269Z,92.52
2019-01-09T09:48:25.429Z,90.25
2019-01-09T09:49:33.478Z,91.20
2019-01-09T09:50:41.492Z,93.09
2019-01-09T09:51:49.600Z,92.52
2019-01-09T09:52:57.569Z,94.23
2019-01-09T09:54:05.710Z,91.48
2019-01-09T09:55:13.745Z,99.76
2019-01-09T09:56:21.810Z,99.99
2019-01-09T09:57:29.772Z,99.99
2019-01-09T09:58:37.836Z,99.99
2019-01-09T09:59:45.950Z,99.43
2019-01-09T10:00:54.053Z,99.99
2019-01-09T10:02:02.007Z,99.99
2019-01-09T10:03:10.071Z,99.99
2019-01-09T10:04:18.120Z,99.99
2019-01-09T10:05:26.166Z,99.99
2019-01-09T10:06:34.219Z,99.99
2019-01-09T10:07:42.287Z,99.99
2019-01-09T10:08:50.342Z,99.99
2019-01-09T10:09:58.412Z,99.99
2019-01-09T10:11:06.450Z,99.99
2019-01-09T10:12:14.514Z,99.99
2019-01-09T10:13:22.636Z,99.99
2019-01-09T10:14:30.614Z,99.99
2019-01-09T10:15:38.685Z,99.99
2019-01-09T10:16:46.748Z,99.99
2019-01-09T10:17:54.800Z,99.99
2019-01-09T10:19:02.848Z,99.99
2019-01-09T10:20:10.876Z,99.99
2019-01-09T10:21:18.969Z,99.99
2019-01-09T10:22:27.035Z,99.99
2019-01-09T10:23:35.092Z,99.99
2019-01-09T10:24:43.138Z,99.99
2019-01-09T10:25:51.184Z,99.99
2019-01-09T10:26:59.334Z,99.99
2019-01-09T10:28:07.310Z,99.99
2019-01-09T10:29:15.361Z,99.99
2019-01-09T10:30:23.420Z,99.99
2019-01-09T10:31:31.464Z,99.99
2019-01-09T10:32:39.583Z,99.99
2019-01-09T10:33:47.590Z,99.99
2019-01-09T10:34:55.651Z,99.99
2019-01-09T10:36:03.706Z,99.99
2019-01-09T10:37:11.768Z,99.99
2019-01-09T10:38:19.817Z,99.99
2019-01-09T10:39:27.887Z,99.99
2019-01-09T10:40:36.341Z,99.99
2019-01-09T10:41:43.993Z,99.99
2019-01-09T10:42:52.049Z,99.99
2019-01-09T10:44:00.099Z,99.99
2019-01-09T10:45:08.146Z,99.99
2019-01-09T10:46:16.228Z,99.99
2019-01-09T10:47:24.272Z,99.99
2019-01-09T10:48:32.350Z,99.99
2019-01-09T10:49:40.387Z,99.99
2019-01-09T10:50:48.443Z,99.99
2019-01-09T10:51:56.489Z,99.99
2019-01-09T10:53:04.545Z,99.99
2019-01-09T10:54:12.614Z,99.99
2019-01-09T10:55:20.654Z,99.99
2019-01-09T10:56:28.719Z,99.99
2019-01-09T10:57:36.795Z,99.99
2019-01-09T10:58:44.890Z,99.99
2019-01-09T10:59:52.905Z,99.99
2019-01-09T11:01:00.921Z,99.99
2019-01-09T11:02:09.026Z,99.99
2019-01-09T11:03:17.071Z,99.99
2019-01-09T11:04:25.138Z,99.99
2019-01-09T11:05:33.184Z,99.99
2019-01-09T11:06:41.223Z,99.99
2019-01-09T11:07:49.303Z,99.99
2019-01-09T11:08:57.360Z,99.99
2019-01-09T11:10:05.417Z,99.99
2019-01-09T11:11:13.481Z,99.99
2019-01-09T11:12:21.601Z,99.99
2019-01-09T11:13:29.583Z,99.99
2019-01-09T11:14:37.644Z,99.99
2019-01-09T11:15:45.707Z,99.99
2019-01-09T11:16:53.761Z,99.99
2019-01-09T11:19:35.580Z,99.99
2019-01-09T11:20:46.160Z,99.99
2019-01-09T11:21:54.261Z,99.99
2019-01-09T11:23:02.338Z,99.99
2019-01-09T11:24:10.334Z,99.99
2019-01-09T11:25:18.403Z,99.99
2019-01-09T11:26:26.466Z,99.99
2019-01-09T11:27:34.525Z,99.99
2019-01-09T11:28:42.574Z,99.99
2019-01-09T11:29:50.629Z,99.99
2019-01-09T11:30:58.692Z,99.99
2019-01-09T11:32:06.750Z,99.99
2019-01-09T11:33:14.802Z,99.99
2019-01-09T11:34:22.857Z,99.99
2019-01-09T11:35:30.902Z,99.99
2019-01-09T11:36:38.974Z,99.99
2019-01-09T11:37:47.035Z,99.99
2019-01-09T11:38:55.744Z,99.99
2019-01-09T11:40:03.162Z,99.99
2019-01-09T11:41:11.185Z,99.99
2019-01-09T11:42:19.257Z,99.99
2019-01-09T11:43:27.324Z,99.99
2019-01-09T11:44:35.390Z,99.99
2019-01-09T11:45:43.451Z,99.99
2019-01-09T11:46:51.500Z,99.99
2019-01-09T11:47:59.561Z,99.99
2019-01-09T11:49:07.624Z,99.99
2019-01-09T11:50:15.670Z,99.99
2019-01-09T11:51:23.720Z,99.99
2019-01-09T11:52:31.777Z,99.99
2019-01-09T11:53:39.848Z,99.99
2019-01-09T11:54:47.916Z,99.99
2019-01-09T11:55:55.967Z,99.99
2019-01-09T11:57:04.016Z,99.99
2019-01-09T11:58:12.082Z,99.99
2019-01-09T11:59:20.135Z,99.99
2019-01-09T12:00:28.191Z,99.99
2019-01-09T12:01:36.249Z,99.99
2019-01-09T12:02:44.309Z,99.99
2019-01-09T12:03:52.381Z,99.99
2019-01-09T12:05:00.423Z,99.99
2019-01-09T12:06:08.486Z,99.99
2019-01-09T12:07:16.540Z,99.99
2019-01-09T12:08:24.604Z,99.99
2019-01-09T12:09:32.640Z,99.99
2019-01-09T12:10:40.676Z,99.99
2019-01-09T12:11:48.787Z,99.99
2019-01-09T12:12:56.835Z,99.99
2019-01-09T12:14:04.888Z,99.99
2019-01-09T12:15:12.960Z,99.99
2019-01-09T12:16:20.974Z,99.99
2019-01-09T12:17:29.068Z,99.99
2019-01-09T12:18:37.165Z,99.99
2019-01-09T12:19:45.168Z,99.99
2019-01-09T12:20:53.234Z,99.99
2019-01-09T12:22:01.258Z,99.99
2019-01-09T12:23:09.352Z,99.99
2019-01-09T12:24:17.497Z,99.99
2019-01-09T12:25:25.447Z,99.99
2019-01-09T12:26:33.526Z,99.99
2019-01-09T12:27:41.574Z,99.99
2019-01-09T12:28:53.538Z,99.99
2019-01-09T12:29:57.693Z,99.99
2019-01-09T12:31:05.761Z,99.99
2019-01-09T12:32:15.348Z,99.99
2019-01-09T12:33:21.863Z,99.99
2019-01-09T12:34:29.920Z,99.99
2019-01-09T12:35:37.985Z,99.99
2019-01-09T12:36:46.081Z,99.99
2019-01-09T12:37:54.100Z,99.99
2019-01-09T12:39:02.159Z,99.99
2019-01-09T12:40:10.213Z,99.99
2019-01-09T12:41:18.279Z,99.99
2019-01-09T12:42:26.338Z,99.99
2019-01-09T12:43:34.385Z,99.99
2019-01-09T12:44:42.447Z,99.99
2019-01-09T12:45:50.496Z,99.99
2019-01-09T12:46:58.565Z,99.99
2019-01-09T12:48:06.639Z,99.99
2019-01-09T12:49:14.677Z,99.99
2019-01-09T12:50:22.746Z,99.99
2019-01-09T12:51:30.827Z,99.99
2019-01-09T12:52:38.871Z,99.99
2019-01-09T12:53:46.917Z,99.99
2019-01-09T12:54:54.966Z,99.99
2019-01-09T12:56:03.034Z,99.99
2019-01-09T12:57:11.066Z,99.99
2019-01-09T12:58:19.163Z,99.99
2019-01-09T12:59:27.220Z,99.99
2019-01-09T13:00:35.280Z,99.99
2019-01-09T13:01:43.327Z,99.99
2019-01-09T13:02:51.365Z,99.99
2019-01-09T13:03:59.436Z,99.99
2019-01-09T13:05:07.499Z,99.99
2019-01-09T13:06:15.550Z,99.99
2019-01-09T13:07:23.619Z,99.99
2019-01-09T13:08:31.663Z,99.99
2019-01-09T13:09:39.726Z,99.99
2019-01-09T13:10:47.792Z,99.99
2019-01-09T13:11:55.850Z,99.99
2019-01-09T13:13:03.895Z,99.99
2019-01-09T13:14:11.955Z,99.99
2019-01-09T13:15:20.024Z,99.99
2019-01-09T13:16:28.074Z,99.99
2019-01-09T13:17:36.142Z,99.99
2019-01-09T13:18:44.201Z,99.99
2019-01-09T13:19:52.250Z,99.99
2019-01-09T13:21:00.309Z,99.99
2019-01-09T13:22:08.357Z,99.99
2019-01-09T13:23:16.420Z,99.99
2019-01-09T13:24:24.477Z,99.99
2019-01-09T13:25:32.542Z,99.99
2019-01-09T13:26:40.592Z,99.99
2019-01-09T13:27:48.653Z,99.99
2019-01-09T13:28:56.719Z,99.99
2019-01-09T13:30:04.780Z,99.99
2019-01-09T13:31:12.831Z,99.99
2019-01-09T13:32:20.862Z,99.99
2019-01-09T13:33:28.944Z,99.99
2019-01-09T13:34:37.006Z,99.99
2019-01-09T13:35:45.055Z,99.99
2019-01-09T13:36:53.116Z,99.99
2019-01-09T13:38:01.166Z,99.99
2019-01-09T13:39:09.234Z,99.99
2019-01-09T13:40:17.285Z,99.99
2019-01-09T13:41:25.351Z,99.99
2019-01-09T13:42:33.402Z,99.99
2019-01-09T13:43:41.449Z,99.99
2019-01-09T13:44:49.514Z,99.99
2019-01-09T13:45:59.428Z,99.99
2019-01-09T13:47:05.632Z,99.99
2019-01-09T13:48:13.702Z,99.99
2019-01-09T13:49:21.741Z,99.99
2019-01-09T13:50:29.818Z,99.99
2019-01-09T13:51:37.866Z,99.99
2019-01-09T13:52:45.929Z,99.99
2019-01-09T13:53:53.966Z,99.99
2019-01-09T13:55:02.037Z,99.99
2019-01-09T13:56:10.101Z,99.99
2019-01-09T13:57:18.156Z,99.99
2019-01-09T13:58:26.213Z,99.99
2019-01-09T13:59:34.275Z,99.99
2019-01-09T14:00:42.325Z,99.99
2019-01-09T14:01:50.395Z,99.99
2019-01-09T14:02:58.441Z,99.99
2019-01-09T14:04:06.515Z,99.99
2019-01-09T14:05:14.559Z,99.99
2019-01-09T14:06:22.630Z,99.99
2019-01-09T14:07:30.646Z,99.99
2019-01-09T14:08:38.724Z,99.99
2019-01-09T14:09:46.783Z,99.99
2019-01-09T14:10:54.861Z,99.99
2019-01-09T14:12:02.946Z,99.99
2019-01-09T14:13:10.929Z,99.99
2019-01-09T14:14:19.007Z,99.99
2019-01-09T14:15:27.085Z,99.99
2019-01-09T14:16:35.149Z,99.99
2019-01-09T14:17:43.187Z,99.99
2019-01-09T14:18:55.254Z,99.99
2019-01-09T14:19:59.308Z,99.99
2019-01-09T14:21:07.355Z,99.99
2019-01-09T14:22:15.424Z,99.99
2019-01-09T14:23:23.483Z,99.99
2019-01-09T14:24:31.552Z,99.99
2019-01-09T14:25:39.579Z,99.99
2019-01-09T14:26:47.651Z,99.99
2019-01-09T14:27:55.700Z,99.99
2019-01-09T14:29:03.750Z,99.99
2019-01-09T14:30:11.817Z,99.99
2019-01-09T14:31:19.869Z,99.99
2019-01-09T14:32:27.921Z,99.99
2019-01-09T14:33:35.995Z,99.99
2019-01-09T14:34:44.034Z,99.99
2019-01-09T14:35:52.097Z,99.99
2019-01-09T14:37:00.156Z,99.99
2019-01-09T14:38:08.224Z,99.99
2019-01-09T14:39:16.265Z,99.99
2019-01-09T14:40:24.320Z,99.99
2019-01-09T14:41:32.383Z,99.99
2019-01-09T14:42:40.452Z,99.99
2019-01-09T14:43:48.496Z,99.99
2019-01-09T14:44:56.554Z,99.99
2019-01-09T14:46:04.630Z,99.99
2019-01-09T14:47:12.680Z,99.99
2019-01-09T14:48:20.690Z,99.99
2019-01-09T14:49:28.769Z,99.99
2019-01-09T14:50:36.848Z,99.99
2019-01-09T14:51:44.894Z,99.99
2019-01-09T14:52:52.947Z,99.99
2019-01-09T14:54:00.989Z,99.99
2019-01-09T14:55:09.058Z,99.99
2019-01-09T14:56:17.142Z,99.99
2019-01-09T14:57:25.178Z,99.99
2019-01-09T14:58:33.298Z,99.99
2019-01-09T14:59:41.290Z,99.99
2019-01-09T15:00:49.349Z,99.99
2019-01-09T15:01:57.401Z,99.99
2019-01-09T15:03:05.461Z,99.99
2019-01-09T15:04:13.542Z,99.99
2019-01-09T15:05:21.599Z,99.99
2019-01-09T15:06:29.736Z,99.99
2019-01-09T15:07:37.672Z,99.99
2019-01-09T15:08:45.747Z,99.99
2019-01-09T15:09:56.681Z,99.99
2019-01-09T15:11:01.856Z,99.99
2019-01-09T15:12:09.899Z,99.99